Time;durP1;ratioP1;P1;durP2;ratioP2;P2;SDS_P1;SDS_P2;PMS_P1;PMS_P2;Temp;Humidity;BMP_temperature;BMP_pressure;BME280_temperature;BME280_humidity;BME280_pressure;Samples;Min_cycle;Max_cycle;Signal;HPM_P1;HPM_P2
2021/12/05 00:18:47;;;;;;;;;;;;;;;16.90;47.12;99648.78;4901384;29;19948;-46
2021/12/05 00:24:08;;;;;;;;;;;;;;;16.88;47.15;99651.66;4907469;29;19963;-49
2021/12/05 00:26:34;;;;;;;;;;;;;;;16.87;47.15;99647.31;4906797;29;19923;-47
2021/12/05 00:29:23;;;;;;;;;;;;;;;16.87;46.95;99654.53;4906267;29;19927;-47
2021/12/05 00:32:07;;;;;;;;;;;;;;;16.87;47.14;99643.81;4914512;29;19919;-46
2021/12/05 00:35:49;;;;;;;;;;;;;;;16.86;47.08;99650.16;4906597;29;19931;-45
2021/12/05 00:46:13;;;;;;;;;;;;;;;16.83;47.13;99646.03;4905870;29;19968;-46
2021/12/05 00:59:36;;;;;;;;;;;;;;;16.81;47.00;99645.34;4965486;28;19926;-48
2021/12/05 01:05:13;;;;;;;;;;;;;;;16.80;46.97;99648.25;4966053;29;19925;-48
2021/12/05 01:08:00;;;;;;;;;;;;;;;16.79;46.96;99651.94;4954367;29;19922;-46
2021/12/05 01:13:24;;;;;;;;;;;;;;;16.78;46.99;99647.56;4968956;28;19914;-50
2021/12/05 01:15:45;;;;;;;;;;;;;;;16.77;47.12;99648.59;4964913;29;19921;-50
2021/12/05 01:18:16;;;;;;;;;;;;;;;16.74;46.96;99652.50;4956925;28;19915;-49
2021/12/05 01:20:43;;;;;;;;;;;;;;;16.73;47.01;99657.00;4952313;28;19949;-46
2021/12/05 01:23:18;;;;;;;;;;;;;;;16.73;47.14;99662.38;4965312;29;19915;-46
2021/12/05 01:25:50;;;;;;;;;;;;;;;16.72;47.12;99658.03;4965582;28;19923;-47
2021/12/05 01:33:51;;;;;;;;;;;;;;;16.70;46.95;99668.09;4967408;28;19914;-46
2021/12/05 01:36:30;;;;;;;;;;;;;;;16.69;47.06;99663.75;4952287;29;19929;-48
2021/12/05 01:47:32;;;;;;;;;;;;;;;16.66;47.16;99660.59;4941033;29;19919;-46
2021/12/05 02:00:52;;;;;;;;;;;;;;;16.61;47.12;99669.22;4947333;29;19946;-45
2021/12/05 02:08:56;;;;;;;;;;;;;;;16.60;46.95;99655.97;4933234;29;19952;-46
2021/12/05 02:11:47;;;;;;;;;;;;;;;16.58;47.10;99655.31;4936313;29;19915;-51
2021/12/05 02:15:28;;;;;;;;;;;;;;;16.58;46.97;99663.38;4908424;29;20474;-47
2021/12/05 02:38:52;;;;;;;;;;;;;;;16.49;46.97;99662.63;4968393;28;19918;-47
2021/12/05 02:41:20;;;;;;;;;;;;;;;16.48;46.95;99672.53;4973685;28;19918;-47
2021/12/05 02:43:47;;;;;;;;;;;;;;;16.47;47.03;99664.66;4976273;28;20183;-50
2021/12/05 02:46:14;;;;;;;;;;;;;;;16.46;47.17;99662.97;4970315;28;19919;-52
2021/12/05 02:48:39;;;;;;;;;;;;;;;16.46;46.94;99671.03;4977736;28;19929;-47
2021/12/05 02:51:10;;;;;;;;;;;;;;;16.44;47.15;99673.91;4968332;28;19977;-49
2021/12/05 02:53:43;;;;;;;;;;;;;;;16.43;46.88;99669.53;4967697;29;19921;-46
2021/12/05 02:56:09;;;;;;;;;;;;;;;16.42;47.09;99664.38;4968043;28;19922;-49
2021/12/05 03:01:17;;;;;;;;;;;;;;;16.40;47.01;99666.41;4973074;28;19986;-49
2021/12/05 03:03:43;;;;;;;;;;;;;;;16.38;47.10;99680.00;4968001;28;19921;-48
2021/12/05 03:06:16;;;;;;;;;;;;;;;16.37;46.96;99681.00;4968278;29;19914;-50
2021/12/05 03:08:42;;;;;;;;;;;;;;;16.36;47.08;99673.97;4967754;28;19930;-48
2021/12/05 03:11:07;;;;;;;;;;;;;;;16.36;46.98;99682.03;4966750;29;19922;-50
2021/12/05 03:13:36;;;;;;;;;;;;;;;16.36;46.99;99673.16;4966434;29;20001;-51
2021/12/05 03:16:02;;;;;;;;;;;;;;;16.34;47.04;99661.75;4967140;29;19927;-46
2021/12/05 03:18:27;;;;;;;;;;;;;;;16.33;47.00;99671.66;4980394;28;20500;-51
2021/12/05 03:20:52;;;;;;;;;;;;;;;16.33;47.02;99665.47;4968222;28;19925;-50
2021/12/05 03:23:17;;;;;;;;;;;;;;;16.33;47.02;99670.81;4967310;28;19999;-51
2021/12/05 03:25:43;;;;;;;;;;;;;;;16.31;47.00;99662.97;4966702;29;20424;-50
2021/12/05 03:28:08;;;;;;;;;;;;;;;16.31;47.14;99662.13;4967778;28;19918;-46
2021/12/05 03:30:33;;;;;;;;;;;;;;;16.29;46.89;99667.66;4966914;28;19919;-46
2021/12/05 03:32:58;;;;;;;;;;;;;;;16.28;47.09;99663.31;4967559;28;19914;-49
2021/12/05 03:35:25;;;;;;;;;;;;;;;16.27;46.97;99666.16;4967072;28;19923;-48
2021/12/05 03:37:51;;;;;;;;;;;;;;;16.25;47.04;99656.47;4956344;28;19926;-48
2021/12/05 03:40:18;;;;;;;;;;;;;;;16.24;47.08;99662.03;4967139;28;19922;-49
2021/12/05 03:42:43;;;;;;;;;;;;;;;16.24;47.19;99670.91;4967114;28;19921;-46
2021/12/05 03:45:09;;;;;;;;;;;;;;;16.23;47.14;99668.41;4966711;29;19914;-47
2021/12/05 03:47:36;;;;;;;;;;;;;;;16.22;47.06;99672.91;4967346;28;19988;-49
2021/12/05 03:50:01;;;;;;;;;;;;;;;16.22;47.07;99672.09;4967311;28;19919;-50
2021/12/05 03:52:27;;;;;;;;;;;;;;;16.22;47.13;99672.91;4965784;29;19921;-45
2021/12/05 03:54:52;;;;;;;;;;;;;;;16.20;47.12;99672.28;4966581;29;19914;-47
2021/12/05 03:57:17;;;;;;;;;;;;;;;16.19;47.06;99673.28;4967040;28;19918;-48
2021/12/05 03:59:44;;;;;;;;;;;;;;;16.19;47.13;99677.81;4966251;28;19977;-46
2021/12/05 04:02:10;;;;;;;;;;;;;;;16.18;47.11;99673.47;4966956;28;19914;-47
2021/12/05 04:04:35;;;;;;;;;;;;;;;16.18;47.14;99681.50;4967006;29;19970;-49
2021/12/05 04:07:00;;;;;;;;;;;;;;;16.17;47.11;99678.00;4965626;29;19914;-45
2021/12/05 04:09:26;;;;;;;;;;;;;;;16.16;46.77;99676.31;4966395;29;20486;-47
2021/12/05 04:11:59;;;;;;;;;;;;;;;16.17;47.22;99685.19;4966652;28;19961;-47
2021/12/05 04:14:27;;;;;;;;;;;;;;;16.15;47.05;99680.03;4966144;29;20466;-45
2021/12/05 04:16:53;;;;;;;;;;;;;;;16.15;47.02;99692.59;4971680;28;19946;-49
2021/12/05 04:19:18;;;;;;;;;;;;;;;16.15;46.96;99688.06;4966637;29;19919;-48
2021/12/05 04:21:43;;;;;;;;;;;;;;;16.15;47.07;99684.56;4966590;28;19938;-49
2021/12/05 04:24:09;;;;;;;;;;;;;;;16.14;47.08;99682.88;4966247;28;20431;-48
2021/12/05 04:26:35;;;;;;;;;;;;;;;16.13;47.12;99684.72;4966527;29;20009;-47
2021/12/05 04:29:00;;;;;;;;;;;;;;;16.13;46.98;99687.41;4966437;28;19966;-45
2021/12/05 04:31:26;;;;;;;;;;;;;;;16.13;46.95;99683.91;4965941;28;19925;-46
2021/12/05 04:33:51;;;;;;;;;;;;;;;16.13;46.98;99678.53;4966334;28;19918;-46
2021/12/05 04:36:17;;;;;;;;;;;;;;;16.13;46.93;99675.84;4966441;28;19930;-48
2021/12/05 04:38:42;;;;;;;;;;;;;;;16.14;46.85;99674.84;4966244;28;20441;-49
2021/12/05 04:41:07;;;;;;;;;;;;;;;16.12;46.86;99674.19;4966192;29;19930;-46
2021/12/05 04:43:38;;;;;;;;;;;;;;;16.11;47.01;99676.03;4966122;29;19915;-49
2021/12/05 04:46:04;;;;;;;;;;;;;;;16.10;47.00;99682.44;4969856;28;19918;-48
2021/12/05 04:48:29;;;;;;;;;;;;;;;16.10;46.93;99690.47;4974175;28;19925;-49
2021/12/05 04:50:54;;;;;;;;;;;;;;;16.10;46.97;99690.47;4979753;28;19914;-48
2021/12/05 04:53:22;;;;;;;;;;;;;;;16.09;47.00;99696.00;4966084;29;19942;-48
2021/12/05 04:55:47;;;;;;;;;;;;;;;16.09;46.89;99691.47;4965907;28;19915;-47
2021/12/05 04:58:12;;;;;;;;;;;;;;;16.10;46.90;99697.66;4965721;29;19919;-49
2021/12/05 05:00:39;;;;;;;;;;;;;;;16.09;46.87;99701.34;4965439;28;19918;-48
2021/12/05 05:03:05;;;;;;;;;;;;;;;16.09;46.88;99698.66;4952450;29;19914;-48
2021/12/05 05:05:31;;;;;;;;;;;;;;;16.08;46.78;99697.00;4965919;28;19961;-47
2021/12/05 05:07:56;;;;;;;;;;;;;;;16.09;46.87;99704.88;4965836;28;19918;-47
2021/12/05 05:10:23;;;;;;;;;;;;;;;16.10;46.95;99711.06;4965524;28;20467;-46
2021/12/05 05:12:48;;;;;;;;;;;;;;;16.08;46.75;99707.75;4965631;28;19977;-48
2021/12/05 05:15:16;;;;;;;;;;;;;;;16.10;46.78;99713.75;4965086;28;19942;-47
2021/12/05 05:17:42;;;;;;;;;;;;;;;16.08;46.89;99718.47;4952478;28;19927;-50
2021/12/05 05:20:22;;;;;;;;;;;;;;;16.08;46.81;99726.50;4965689;28;19974;-49
2021/12/05 05:23:11;;;;;;;;;;;;;;;16.08;46.95;99721.16;4965341;28;19918;-46
2021/12/05 05:30:56;;;;;;;;;;;;;;;16.10;46.81;99736.06;4964904;28;19914;-47
2021/12/05 05:39:22;;;;;;;;;;;;;;;16.09;46.87;99755.81;4967521;28;19922;-49
2021/12/05 05:47:29;;;;;;;;;;;;;;;16.10;46.83;99748.59;4967187;28;19925;-50
2021/12/05 05:50:03;;;;;;;;;;;;;;;16.11;46.85;99761.00;4965769;28;19922;-47
2021/12/05 05:52:29;;;;;;;;;;;;;;;16.12;46.87;99760.00;4965187;28;19925;-48
2021/12/05 05:54:57;;;;;;;;;;;;;;;16.12;46.74;99771.56;4967445;28;19921;-51
2021/12/05 06:00:18;;;;;;;;;;;;;;;16.13;46.83;99773.22;4968438;28;19942;-47
2021/12/05 06:05:31;;;;;;;;;;;;;;;16.13;46.85;99772.38;4965098;28;19926;-49
2021/12/05 06:07:56;;;;;;;;;;;;;;;16.13;46.79;99785.78;4964937;28;19915;-48
2021/12/05 06:10:23;;;;;;;;;;;;;;;16.13;46.85;99783.09;4959693;28;19974;-48
2021/12/05 06:12:49;;;;;;;;;;;;;;;16.14;46.78;99779.41;4958522;28;19922;-47
2021/12/05 06:15:15;;;;;;;;;;;;;;;16.15;46.71;99781.09;4966044;28;19922;-47
2021/12/05 06:17:40;;;;;;;;;;;;;;;16.16;46.83;99780.09;4964759;28;20488;-46
2021/12/05 06:20:07;;;;;;;;;;;;;;;16.17;46.74;99781.75;4966272;28;19914;-46
2021/12/05 06:22:32;;;;;;;;;;;;;;;16.18;46.78;99783.41;4965490;28;20372;-50
2021/12/05 06:24:58;;;;;;;;;;;;;;;16.18;46.89;99786.94;4964608;28;19918;-50
2021/12/05 06:27:23;;;;;;;;;;;;;;;16.19;46.94;99787.78;4965060;28;19955;-50
2021/12/05 06:29:55;;;;;;;;;;;;;;;16.19;46.87;99787.78;4964218;28;19923;-49
2021/12/05 06:38:04;;;;;;;;;;;;;;;16.21;47.08;99789.25;4965828;28;19922;-49
2021/12/05 06:46:03;;;;;;;;;;;;;;;16.24;46.92;99804.16;4967790;28;19952;-48
2021/12/05 06:48:29;;;;;;;;;;;;;;;16.24;47.06;99802.31;4968848;28;19958;-48
2021/12/05 06:50:54;;;;;;;;;;;;;;;16.25;46.99;99805.81;4971021;28;19925;-47
2021/12/05 06:53:19;;;;;;;;;;;;;;;16.25;46.98;99801.28;4970433;28;19921;-50
2021/12/05 06:55:44;;;;;;;;;;;;;;;16.27;47.04;99803.81;4970268;28;20002;-48
2021/12/05 06:58:09;;;;;;;;;;;;;;;16.28;47.19;99810.00;4968696;28;20461;-45
2021/12/05 07:00:35;;;;;;;;;;;;;;;16.18;47.18;99794.13;4966960;28;19922;-47
2021/12/05 07:03:00;;;;;;;;;;;;;;;16.28;47.24;99810.00;4971586;28;19953;-47
2021/12/05 07:07:53;;;;;;;;;;;;;;;16.31;47.17;99823.03;4968543;28;19914;-48
2021/12/05 07:10:20;;;;;;;;;;;;;;;16.30;47.17;99824.91;4969733;28;19914;-47
2021/12/05 07:13:00;;;;;;;;;;;;;;;16.31;47.22;99831.97;4973509;28;19919;-45
2021/12/05 07:15:35;;;;;;;;;;;;;;;16.31;47.14;99831.09;4967500;28;20411;-48
2021/12/05 07:21:03;;;;;;;;;;;;;;;16.32;47.16;99836.28;4967475;28;19942;-45
2021/12/05 07:26:27;;;;;;;;;;;;;;;16.34;47.24;99845.00;4967818;28;19918;-47
2021/12/05 07:42:38;;;;;;;;;;;;;;;16.40;47.11;99873.81;4966788;28;19953;-49
2021/12/05 07:45:05;;;;;;;;;;;;;;;16.42;46.97;99878.97;4973049;28;19914;-49
2021/12/05 07:47:32;;;;;;;;;;;;;;;16.43;47.19;99884.16;4967144;28;19930;-50
2021/12/05 07:50:01;;;;;;;;;;;;;;;16.44;47.25;99883.16;4976813;28;19975;-50
2021/12/05 07:52:29;;;;;;;;;;;;;;;16.48;47.03;99892.53;4959821;28;20005;-45
2021/12/05 07:55:01;;;;;;;;;;;;;;;16.52;47.21;99886.78;4963929;28;19929;-50
2021/12/05 07:57:33;;;;;;;;;;;;;;;16.57;47.03;99893.31;4960540;28;19934;-48
2021/12/05 08:00:26;;;;;;;;;;;;;;;16.62;47.12;99895.47;4961442;28;19922;-48
2021/12/05 08:16:34;;;;;;;;;;;;;;;16.84;46.83;99910.75;4964509;28;19976;-44
2021/12/05 08:18:59;;;;;;;;;;;;;;;16.87;46.82;99912.28;4964809;28;19918;-50
2021/12/05 08:21:24;;;;;;;;;;;;;;;16.89;46.72;99907.53;4964316;28;19915;-48
2021/12/05 08:23:50;;;;;;;;;;;;;;;16.91;46.78;99913.56;4965262;28;19930;-44
2021/12/05 08:26:22;;;;;;;;;;;;;;;16.93;46.80;99915.06;4964128;28;19963;-46
2021/12/05 08:29:05;;;;;;;;;;;;;;;16.95;46.82;99922.94;4964159;28;19918;-47
2021/12/05 08:32:03;;;;;;;;;;;;;;;16.98;46.65;99926.09;4964314;28;19961;-49
2021/12/05 08:34:47;;;;;;;;;;;;;;;17.01;46.53;99924.06;4964089;28;20013;-48
2021/12/05 08:45:56;;;;;;;;;;;;;;;17.07;46.35;99942.13;4937287;29;19939;-48
2021/12/05 09:21:55;;;;;;;;;;;;;;;17.30;46.66;99980.56;4904358;29;20018;-49
2021/12/05 09:24:36;;;;;;;;;;;;;;;17.33;46.40;99984.72;4914377;28;20340;-45
2021/12/05 09:27:32;;;;;;;;;;;;;;;17.35;46.61;100001.53;4960721;28;19914;-48
2021/12/05 09:30:10;;;;;;;;;;;;;;;17.35;46.40;99999.66;4961761;28;19922;-46
2021/12/05 09:51:24;;;;;;;;;;;;;;;17.44;45.96;100027.31;4965028;29;20276;-47
2021/12/05 10:02:36;;;;;;;;;;;;;;;17.52;45.64;100035.31;4965056;29;19921;-50
2021/12/05 10:08:02;;;;;;;;;;;;;;;17.65;45.25;100053.50;4965068;29;20002;-47
2021/12/05 10:11:02;;;;;;;;;;;;;;;17.72;45.00;100057.16;4966869;28;19918;-49
2021/12/05 10:13:17;;;;;;;;;;;;;;;17.77;44.95;100064.72;4968302;29;19915;-48
2021/12/05 10:35:12;;;;;;;;;;;;;;;17.80;44.60;100093.91;4968464;29;20424;-50
2021/12/05 10:37:36;;;;;;;;;;;;;;;17.80;44.69;100093.91;4955046;29;19965;-49
2021/12/05 10:40:01;;;;;;;;;;;;;;;17.81;44.59;100099.09;4968189;28;19914;-51
2021/12/05 10:42:37;;;;;;;;;;;;;;;17.82;44.40;100098.09;4968439;28;19921;-46
2021/12/05 10:45:04;;;;;;;;;;;;;;;17.84;44.40;100100.59;4967788;29;19969;-49
2021/12/05 10:47:39;;;;;;;;;;;;;;;17.85;44.59;100110.34;4968078;29;19928;-48
2021/12/05 10:50:23;;;;;;;;;;;;;;;17.84;44.32;100103.28;4967893;28;19918;-48
2021/12/05 10:52:50;;;;;;;;;;;;;;;17.83;44.49;100112.38;4967930;28;19918;-46
2021/12/05 10:55:27;;;;;;;;;;;;;;;17.80;44.70;100110.88;4960088;28;19925;-43
2021/12/05 10:57:54;;;;;;;;;;;;;;;17.80;44.74;100115.41;4962571;28;20351;-47
2021/12/05 11:00:19;;;;;;;;;;;;;;;17.78;44.97;100118.28;4964615;28;19923;-49
2021/12/05 11:02:44;;;;;;;;;;;;;;;17.79;44.97;100124.50;4965528;28;19914;-44
2021/12/05 11:05:09;;;;;;;;;;;;;;;17.78;44.88;100123.66;4963892;28;19981;-48
2021/12/05 11:07:35;;;;;;;;;;;;;;;17.79;45.15;100127.19;4965480;28;19922;-47
2021/12/05 11:10:02;;;;;;;;;;;;;;;17.78;44.97;100125.53;4965472;28;19929;-45
2021/12/05 11:12:31;;;;;;;;;;;;;;;17.77;45.04;100129.22;4965278;28;19915;-45
2021/12/05 11:15:02;;;;;;;;;;;;;;;17.74;45.12;100135.78;4965891;28;19914;-47
2021/12/05 11:17:28;;;;;;;;;;;;;;;17.74;45.18;100127.72;4965577;28;19915;-49
2021/12/05 11:20:03;;;;;;;;;;;;;;;17.74;45.08;100142.00;4965538;28;19914;-47
2021/12/05 11:22:29;;;;;;;;;;;;;;;17.74;45.23;100139.31;4963859;28;19922;-47
2021/12/05 11:24:54;;;;;;;;;;;;;;;17.75;45.02;100142.84;4969122;28;19996;-49
2021/12/05 11:27:24;;;;;;;;;;;;;;;17.76;45.20;100147.22;4973008;28;20026;-46
2021/12/05 11:29:51;;;;;;;;;;;;;;;17.79;45.20;100148.69;4963841;28;19961;-49
2021/12/05 11:32:21;;;;;;;;;;;;;;;17.80;45.18;100148.53;4963803;28;20180;-48
2021/12/05 11:34:47;;;;;;;;;;;;;;;17.81;45.40;100149.38;4967931;28;19997;-48
2021/12/05 11:37:12;;;;;;;;;;;;;;;17.84;45.40;100151.69;4963976;28;19984;-48
2021/12/05 11:39:39;;;;;;;;;;;;;;;17.86;45.23;100153.19;4965018;28;21303;-47
2021/12/05 11:42:18;;;;;;;;;;;;;;;17.90;45.15;100153.66;4966692;28;19970;-51
2021/12/05 11:44:46;;;;;;;;;;;;;;;17.92;45.27;100160.50;4964588;28;20077;-46
2021/12/05 11:47:12;;;;;;;;;;;;;;;17.94;45.20;100155.81;4964625;28;19977;-49
2021/12/05 11:49:37;;;;;;;;;;;;;;;17.94;45.21;100157.66;4965182;28;20583;-42
2021/12/05 11:52:03;;;;;;;;;;;;;;;17.95;45.44;100157.47;4961938;28;20004;-46
2021/12/05 11:54:37;;;;;;;;;;;;;;;17.95;45.30;100167.41;4967169;28;20380;-44
2021/12/05 11:57:03;;;;;;;;;;;;;;;17.96;45.42;100161.00;4964905;28;19962;-46
2021/12/05 11:59:29;;;;;;;;;;;;;;;17.96;45.58;100167.22;4964068;28;19955;-47
2021/12/05 12:01:57;;;;;;;;;;;;;;;17.98;45.56;100172.44;4962367;28;20228;-51
2021/12/05 12:04:24;;;;;;;;;;;;;;;17.99;45.64;100176.78;4963851;28;19915;-47
2021/12/05 12:07:05;;;;;;;;;;;;;;;17.99;45.63;100174.94;4964557;28;19921;-49
2021/12/05 12:09:31;;;;;;;;;;;;;;;18.01;45.87;100179.28;4964163;28;19929;-51
2021/12/05 12:11:56;;;;;;;;;;;;;;;18.02;45.69;100178.28;4963725;28;19918;-50
2021/12/05 12:14:21;;;;;;;;;;;;;;;18.05;45.73;100177.91;4964134;28;19961;-48
2021/12/05 12:16:48;;;;;;;;;;;;;;;18.08;45.80;100182.94;4964848;28;19926;-49
2021/12/05 12:19:13;;;;;;;;;;;;;;;18.09;45.78;100181.91;4962241;28;19918;-46
2021/12/05 12:21:42;;;;;;;;;;;;;;;18.11;45.58;100186.09;4963614;28;19918;-49
2021/12/05 12:24:09;;;;;;;;;;;;;;;18.12;45.65;100182.38;4964421;28;19933;-48
2021/12/05 12:26:35;;;;;;;;;;;;;;;18.14;45.76;100182.22;4964236;28;20020;-47
2021/12/05 12:29:00;;;;;;;;;;;;;;;18.15;45.75;100186.56;4964236;28;19922;-47
2021/12/05 12:31:31;;;;;;;;;;;;;;;18.16;45.55;100186.38;4961976;28;19915;-47
2021/12/05 12:33:57;;;;;;;;;;;;;;;18.18;45.53;100191.56;4967724;28;19915;-50
2021/12/05 12:36:32;;;;;;;;;;;;;;;18.17;45.71;100189.91;4964423;28;19929;-50
2021/12/05 12:38:57;;;;;;;;;;;;;;;18.17;45.67;100192.59;4964261;28;19925;-49
2021/12/05 12:41:23;;;;;;;;;;;;;;;18.16;45.66;100197.16;4962362;28;20211;-44
2021/12/05 12:43:53;;;;;;;;;;;;;;;18.15;45.61;100202.72;4964112;28;19915;-46
2021/12/05 12:46:32;;;;;;;;;;;;;;;18.15;45.35;100210.78;4963632;28;19961;-43
2021/12/05 12:49:16;;;;;;;;;;;;;;;18.15;45.41;100219.69;4963322;28;20383;-47
2021/12/05 12:51:44;;;;;;;;;;;;;;;18.17;45.64;100216.81;4962363;28;19923;-45
2021/12/05 12:54:14;;;;;;;;;;;;;;;18.20;45.32;100214.59;4963339;28;19933;-49
2021/12/05 12:56:40;;;;;;;;;;;;;;;18.23;45.20;100213.41;4966373;28;19921;-48
2021/12/05 12:59:07;;;;;;;;;;;;;;;18.27;45.25;100219.28;4969218;28;20458;-51
2021/12/05 13:10:00;;;;;;;;;;;;;;;18.36;45.11;100223.56;4902133;29;19915;-46
2021/12/05 13:10:19;;;;;;;;;;;;;;;18.36;45.14;100229.78;4903368;29;19972;-46
2021/12/05 13:12:49;;;;;;;;;;;;;;;18.36;44.85;100234.34;4902883;29;19930;-45
2021/12/05 13:15:17;;;;;;;;;;;;;;;18.36;44.97;100234.34;4900818;29;20369;-44
2021/12/05 13:17:44;;;;;;;;;;;;;;;18.36;45.13;100234.34;4903901;29;19916;-49
2021/12/05 13:20:10;;;;;;;;;;;;;;;18.36;44.89;100242.41;4904642;29;20031;-47
2021/12/05 13:22:54;;;;;;;;;;;;;;;18.37;44.87;100246.75;4904072;29;19926;-50
2021/12/05 13:25:19;;;;;;;;;;;;;;;18.36;44.91;100251.31;4903446;29;19927;-47
2021/12/05 13:27:45;;;;;;;;;;;;;;;18.36;45.12;100245.94;4907437;29;19915;-50
2021/12/05 13:30:10;;;;;;;;;;;;;;;18.35;45.00;100249.66;4904832;29;19997;-48
2021/12/05 13:32:37;;;;;;;;;;;;;;;18.35;45.01;100259.56;4902221;29;19987;-49
2021/12/05 13:35:07;;;;;;;;;;;;;;;18.33;45.12;100261.59;4905349;29;19927;-44
2021/12/05 13:37:37;;;;;;;;;;;;;;;18.32;44.93;100274.22;4906263;29;19923;-45
2021/12/05 13:40:05;;;;;;;;;;;;;;;18.30;45.17;100278.94;4927239;29;19918;-46
2021/12/05 13:42:37;;;;;;;;;;;;;;;18.29;45.01;100284.50;4965080;28;20447;-46
2021/12/05 13:45:03;;;;;;;;;;;;;;;18.27;45.01;100287.38;4966524;28;19945;-47
2021/12/05 13:47:31;;;;;;;;;;;;;;;18.24;45.03;100291.25;4968973;29;19926;-50
2021/12/05 13:49:58;;;;;;;;;;;;;;;18.23;45.14;100303.06;4969102;28;19926;-47
2021/12/05 13:52:30;;;;;;;;;;;;;;;18.22;45.26;100305.91;4968997;28;19915;-48
2021/12/05 13:55:14;;;;;;;;;;;;;;;18.22;45.24;100308.59;4970107;28;19946;-47
2021/12/05 13:57:40;;;;;;;;;;;;;;;18.20;45.10;100314.16;4968863;28;19929;-48
2021/12/05 14:00:06;;;;;;;;;;;;;;;18.20;45.26;100318.72;4966199;29;20036;-49
2021/12/05 14:02:50;;;;;;;;;;;;;;;18.02;45.26;100291.25;4967349;29;19915;-46
2021/12/05 14:05:27;;;;;;;;;;;;;;;18.17;45.33;100325.28;4968788;29;19915;-45
2021/12/05 14:07:53;;;;;;;;;;;;;;;18.16;45.58;100337.06;4968735;28;19918;-50
2021/12/05 14:10:18;;;;;;;;;;;;;;;18.17;45.49;100344.09;4966935;28;19930;-44
2021/12/05 14:12:43;;;;;;;;;;;;;;;18.17;45.72;100348.66;4967753;28;19970;-49
2021/12/05 14:15:08;;;;;;;;;;;;;;;18.16;45.57;100355.88;4967918;29;19925;-47
2021/12/05 14:17:40;;;;;;;;;;;;;;;18.15;45.61;100351.53;4968707;29;19918;-44
2021/12/05 14:20:06;;;;;;;;;;;;;;;18.15;45.62;100350.69;4964508;29;19914;-50
2021/12/05 14:22:32;;;;;;;;;;;;;;;18.15;45.64;100364.16;4971569;28;20009;-47
2021/12/05 14:24:59;;;;;;;;;;;;;;;18.13;45.81;100364.31;4969600;28;19915;-48
2021/12/05 14:27:25;;;;;;;;;;;;;;;18.14;45.55;100373.25;4959062;29;19921;-46
2021/12/05 14:29:51;;;;;;;;;;;;;;;18.11;45.82;100369.03;4967608;29;19947;-49
2021/12/05 14:32:22;;;;;;;;;;;;;;;18.11;45.94;100376.28;4968080;28;19914;-48
2021/12/05 14:34:48;;;;;;;;;;;;;;;18.09;45.84;100381.81;4974034;28;20376;-45
2021/12/05 14:37:14;;;;;;;;;;;;;;;18.08;45.99;100384.69;4971364;28;19930;-48
2021/12/05 14:39:41;;;;;;;;;;;;;;;18.06;45.83;100387.56;4968992;28;19923;-49
2021/12/05 14:42:16;;;;;;;;;;;;;;;18.06;46.04;100386.72;4970860;28;19915;-47
2021/12/05 14:44:41;;;;;;;;;;;;;;;18.06;45.98;100400.19;4964270;28;19947;-47
2021/12/05 14:47:08;;;;;;;;;;;;;;;18.04;45.99;100400.34;4963348;29;19914;-43
2021/12/05 14:49:36;;;;;;;;;;;;;;;18.03;45.82;100400.53;4956589;28;20214;-46
2021/12/05 14:52:02;;;;;;;;;;;;;;;18.03;45.83;100405.91;4965654;28;20372;-42
2021/12/05 14:54:29;;;;;;;;;;;;;;;18.02;45.99;100404.25;4964855;28;19981;-45
2021/12/05 14:56:55;;;;;;;;;;;;;;;18.03;46.09;100408.59;4964738;28;19918;-49
2021/12/05 14:59:20;;;;;;;;;;;;;;;18.04;46.18;100421.03;4963790;28;19930;-44
2021/12/05 15:01:48;;;;;;;;;;;;;;;18.04;45.87;100426.41;4967866;28;19918;-44
2021/12/05 15:04:17;;;;;;;;;;;;;;;18.04;46.00;100429.94;4965669;28;19957;-44
2021/12/05 15:06:43;;;;;;;;;;;;;;;18.03;46.08;100441.72;4965980;28;19918;-43
2021/12/05 15:09:35;;;;;;;;;;;;;;;18.05;46.05;100441.53;4965188;28;19922;-43
2021/12/05 15:12:00;;;;;;;;;;;;;;;18.04;46.13;100446.06;4961421;28;20315;-46
2021/12/05 15:14:26;;;;;;;;;;;;;;;18.04;46.16;100445.22;4965079;28;20352;-43
2021/12/05 15:16:52;;;;;;;;;;;;;;;18.04;46.20;100448.75;4965565;28;19930;-43
2021/12/05 15:19:17;;;;;;;;;;;;;;;18.04;45.94;100456.84;4963852;28;19919;-45
2021/12/05 15:21:42;;;;;;;;;;;;;;;18.04;46.14;100462.22;4965713;28;19945;-43
2021/12/05 15:24:14;;;;;;;;;;;;;;;18.04;46.17;100464.91;4963712;28;19922;-44
2021/12/05 15:26:39;;;;;;;;;;;;;;;18.06;45.95;100473.66;4965262;28;19953;-47
2021/12/05 15:29:04;;;;;;;;;;;;;;;18.07;46.06;100482.56;4967665;28;20402;-48
2021/12/05 15:31:40;;;;;;;;;;;;;;;18.08;46.17;100481.53;4963916;28;20406;-44
2021/12/05 15:34:24;;;;;;;;;;;;;;;18.08;46.29;100498.50;4963801;28;19914;-48
2021/12/05 15:36:49;;;;;;;;;;;;;;;18.10;46.02;100496.50;4964392;28;20435;-50
2021/12/05 15:39:21;;;;;;;;;;;;;;;18.11;46.32;100513.47;4962341;28;19965;-50
2021/12/05 15:41:56;;;;;;;;;;;;;;;18.13;46.05;100511.44;4964108;28;19922;-46
2021/12/05 15:44:32;;;;;;;;;;;;;;;18.13;46.35;100527.59;4964763;28;19922;-49
2021/12/05 15:47:01;;;;;;;;;;;;;;;18.10;46.19;100518.03;4961704;29;19914;-49
2021/12/05 15:49:28;;;;;;;;;;;;;;;18.08;46.37;100528.09;4964885;28;19923;-46
2021/12/05 15:52:00;;;;;;;;;;;;;;;18.05;46.53;100525.75;4963871;28;19954;-48
2021/12/05 15:54:25;;;;;;;;;;;;;;;18.02;46.58;100534.19;4962767;28;19939;-45
2021/12/05 15:56:50;;;;;;;;;;;;;;;17.99;46.59;100537.22;4965036;28;19918;-46
2021/12/05 15:59:18;;;;;;;;;;;;;;;17.98;46.55;100540.94;4946369;28;19914;-42
2021/12/05 16:01:43;;;;;;;;;;;;;;;17.96;46.74;100545.63;4964417;28;19914;-43
2021/12/05 16:04:18;;;;;;;;;;;;;;;17.95;46.58;100544.78;4968490;28;20294;-46
2021/12/05 16:06:43;;;;;;;;;;;;;;;17.95;46.78;100552.03;4965287;28;19914;-46
2021/12/05 16:09:13;;;;;;;;;;;;;;;17.94;46.83;100556.56;4963081;28;19926;-46
2021/12/05 16:11:39;;;;;;;;;;;;;;;17.95;46.92;100558.22;4961573;28;19914;-42
2021/12/05 16:14:04;;;;;;;;;;;;;;;17.95;46.98;100565.47;4964565;28;19958;-49
2021/12/05 16:16:30;;;;;;;;;;;;;;;17.95;46.70;100570.84;4964985;28;19919;-49
2021/12/05 16:18:56;;;;;;;;;;;;;;;17.94;46.72;100569.16;4964290;28;19915;-48
2021/12/05 16:21:27;;;;;;;;;;;;;;;17.93;46.67;100578.25;4964218;28;19914;-44
2021/12/05 16:23:52;;;;;;;;;;;;;;;17.93;46.83;100580.94;4965035;28;20284;-49
2021/12/05 16:26:21;;;;;;;;;;;;;;;17.92;46.77;100600.75;4964113;28;19947;-47
2021/12/05 16:28:47;;;;;;;;;;;;;;;17.92;46.86;100603.44;4962574;28;20366;-45
2021/12/05 16:31:20;;;;;;;;;;;;;;;17.91;46.75;100605.31;4963423;29;19922;-49
2021/12/05 16:33:47;;;;;;;;;;;;;;;17.92;46.58;100611.53;4964317;28;19938;-50
2021/12/05 16:36:13;;;;;;;;;;;;;;;17.90;46.77;100603.63;4964395;28;19923;-48
2021/12/05 16:38:39;;;;;;;;;;;;;;;17.90;46.78;100614.41;4964006;28;19924;-52
2021/12/05 16:41:15;;;;;;;;;;;;;;;17.90;46.75;100614.41;4966095;28;19918;-49
2021/12/05 16:43:46;;;;;;;;;;;;;;;17.90;46.55;100617.09;4959131;28;19926;-52
2021/12/05 16:46:14;;;;;;;;;;;;;;;17.90;46.81;100618.94;4965463;28;19926;-46
2021/12/05 16:48:40;;;;;;;;;;;;;;;17.89;46.88;100623.47;4965149;28;20515;-49
2021/12/05 16:51:34;;;;;;;;;;;;;;;17.90;46.82;100629.69;4963342;28;19919;-49
2021/12/05 16:54:04;;;;;;;;;;;;;;;17.90;46.91;100637.75;4950457;28;19949;-50
2021/12/05 16:56:34;;;;;;;;;;;;;;;17.90;46.78;100637.75;4962941;28;19970;-50
2021/12/05 16:59:03;;;;;;;;;;;;;;;17.90;46.69;100627.00;4962529;28;19946;-51
2021/12/05 17:01:29;;;;;;;;;;;;;;;17.90;46.65;100635.91;4967157;28;19922;-51
2021/12/05 17:03:55;;;;;;;;;;;;;;;17.89;46.65;100636.09;4963891;28;19934;-48
2021/12/05 17:06:20;;;;;;;;;;;;;;;17.88;46.89;100637.94;4963783;28;19922;-47
2021/12/05 17:08:47;;;;;;;;;;;;;;;17.89;46.95;100641.47;4963500;28;19919;-48
2021/12/05 17:11:16;;;;;;;;;;;;;;;17.88;46.95;100637.94;4963186;28;19922;-48
2021/12/05 17:13:43;;;;;;;;;;;;;;;17.88;46.83;100643.31;4963805;28;19919;-49
2021/12/05 17:16:20;;;;;;;;;;;;;;;17.89;47.15;100647.69;4963274;28;19918;-48
2021/12/05 17:18:47;;;;;;;;;;;;;;;17.90;46.80;100645.84;4963353;28;19954;-47